Time;durP1;ratioP1;P1;durP2;ratioP2;P2;SDS_P1;SDS_P2;PMS_P1;PMS_P2;Temp;Humidity;BMP_temperature;BMP_pressure;BME280_temperature;BME280_humidity;BME280_pressure;Samples;Min_cycle;Max_cycle;Signal;HPM_P1;HPM_P2
2023/06/01 00:02:57;;;;;;;4.85;3.63;;;;;;;;;;10313396;28;20064;-64
2023/06/01 00:07:56;;;;;;;7.68;3.65;;;;;;;;;;10312923;28;20064;-64
2023/06/01 00:12:55;;;;;;;6.18;4.63;;;;;;;;;;10312883;28;20075;-63
2023/06/01 00:17:55;;;;;;;4.75;4.05;;;;;;;;;;10312228;28;20075;-64
2023/06/01 00:22:55;;;;;;;6.28;4.40;;;;;;;;;;10313955;28;20076;-64
2023/06/01 00:27:53;;;;;;;4.88;3.90;;;;;;;;;;10312927;28;20071;-64
2023/06/01 00:32:52;;;;;;;6.07;3.95;;;;;;;;;;10310410;28;20515;-64
2023/06/01 00:37:52;;;;;;;4.88;3.97;;;;;;;;;;10307960;28;20079;-64
2023/06/01 00:42:52;;;;;;;10.40;3.58;;;;;;;;;;10311146;28;20088;-64
2023/06/01 00:47:50;;;;;;;9.00;4.43;;;;;;;;;;10313073;28;20463;-64
2023/06/01 00:52:51;;;;;;;5.90;3.85;;;;;;;;;;10310584;28;20079;-64
2023/06/01 00:57:50;;;;;;;6.25;3.72;;;;;;;;;;10311672;28;20064;-63
2023/06/01 01:02:48;;;;;;;9.35;4.25;;;;;;;;;;10302799;28;20079;-64
2023/06/01 01:07:56;;;;;;;7.47;4.68;;;;;;;;;;10310048;28;20099;-63
2023/06/01 01:12:58;;;;;;;6.32;3.65;;;;;;;;;;10327566;28;20369;-63
2023/06/01 01:18:02;;;;;;;5.13;4.07;;;;;;;;;;10306721;28;20072;-63
2023/06/01 01:23:00;;;;;;;;;;;;;;;;;;10308010;28;20075;-64
2023/06/01 01:28:10;;;;;;;5.55;4.30;;;;;;;;;;10310302;28;19956;-63
2023/06/01 01:33:10;;;;;;;4.95;4.40;;;;;;;;;;10307337;28;20090;-64
2023/06/01 01:38:09;;;;;;;5.68;3.95;;;;;;;;;;10309844;28;20070;-62
2023/06/01 01:43:07;;;;;;;6.70;4.25;;;;;;;;;;10309900;28;20041;-62
2023/06/01 01:48:10;;;;;;;5.15;4.53;;;;;;;;;;10305902;28;20076;-62
2023/06/01 01:53:10;;;;;;;10.33;5.43;;;;;;;;;;10310088;28;20075;-62
2023/06/01 01:58:09;;;;;;;4.47;4.00;;;;;;;;;;10307045;28;20065;-62
2023/06/01 02:03:13;;;;;;;7.95;4.55;;;;;;;;;;10309534;28;20091;-63
2023/06/01 02:08:13;;;;;;;10.20;4.30;;;;;;;;;;10303102;28;20087;-63
2023/06/01 02:13:13;;;;;;;4.93;4.30;;;;;;;;;;10323889;28;20076;-64
2023/06/01 02:18:12;;;;;;;4.70;4.03;;;;;;;;;;10311744;28;20173;-64
2023/06/01 02:23:10;;;;;;;7.43;4.18;;;;;;;;;;10317239;28;20520;-64
2023/06/01 02:28:10;;;;;;;6.43;4.00;;;;;;;;;;10331633;28;20068;-63
2023/06/01 02:33:08;;;;;;;5.93;4.40;;;;;;;;;;10313101;28;20118;-63
2023/06/01 02:38:07;;;;;;;12.45;6.22;;;;;;;;;;10313206;28;20136;-63
2023/06/01 02:43:05;;;;;;;5.93;5.32;;;;;;;;;;10315266;28;20446;-64
2023/06/01 02:48:05;;;;;;;8.23;5.10;;;;;;;;;;10313577;28;20084;-63
2023/06/01 02:53:04;;;;;;;6.78;4.85;;;;;;;;;;10314469;28;20064;-63
2023/06/01 02:58:02;;;;;;;5.47;4.60;;;;;;;;;;10316086;28;20076;-64
2023/06/01 03:03:13;;;;;;;5.28;4.78;;;;;;;;;;10311097;28;20421;-64
2023/06/01 03:08:12;;;;;;;9.02;4.95;;;;;;;;;;10313166;28;20777;-64
2023/06/01 03:13:12;;;;;;;9.32;5.00;;;;;;;;;;10312622;28;20080;-63
2023/06/01 03:18:10;;;;;;;5.72;4.80;;;;;;;;;;10313423;28;20442;-64
2023/06/01 03:23:10;;;;;;;5.90;5.15;;;;;;;;;;10313089;28;20485;-64
2023/06/01 03:28:08;;;;;;;8.60;5.40;;;;;;;;;;10314691;28;20072;-64
2023/06/01 03:33:08;;;;;;;9.55;5.45;;;;;;;;;;10309790;28;20083;-64
2023/06/01 03:38:07;;;;;;;7.65;5.90;;;;;;;;;;10314510;28;20087;-63
2023/06/01 03:43:06;;;;;;;6.97;5.60;;;;;;;;;;10307914;28;20040;-64
2023/06/01 03:48:05;;;;;;;6.90;5.60;;;;;;;;;;10300776;28;20049;-63
2023/06/01 03:53:04;;;;;;;7.63;6.03;;;;;;;;;;10308012;28;20080;-64
2023/06/01 03:58:04;;;;;;;7.57;5.80;;;;;;;;;;10307823;28;20080;-64
2023/06/01 04:03:06;;;;;;;6.70;6.03;;;;;;;;;;10325344;28;20080;-64
2023/06/01 04:08:05;;;;;;;6.40;5.80;;;;;;;;;;10308271;28;20072;-65
2023/06/01 04:13:04;;;;;;;12.40;7.22;;;;;;;;;;10314644;28;20076;-64
2023/06/01 04:18:03;;;;;;;7.43;6.72;;;;;;;;;;10309297;28;20579;-63
2023/06/01 04:23:25;;;;;;;10.55;7.35;;;;;;;;;;10300091;28;20513;-64
2023/06/01 04:28:24;;;;;;;8.40;7.60;;;;;;;;;;10311341;28;20594;-64
2023/06/01 04:33:24;;;;;;;7.75;7.05;;;;;;;;;;10308152;28;20088;-63
2023/06/01 04:38:25;;;;;;;9.80;8.63;;;;;;;;;;10309216;28;20083;-64
2023/06/01 04:43:24;;;;;;;16.80;9.13;;;;;;;;;;10308727;28;20681;-64
2023/06/01 04:48:24;;;;;;;9.65;8.15;;;;;;;;;;10305094;28;20569;-64
2023/06/01 04:53:30;;;;;;;11.02;8.55;;;;;;;;;;10303748;28;20074;-64
2023/06/01 04:58:28;;;;;;;16.45;8.10;;;;;;;;;;10303317;28;20517;-63
2023/06/01 05:03:27;;;;;;;9.65;8.10;;;;;;;;;;10291425;28;20068;-64
2023/06/01 05:08:25;;;;;;;10.75;8.48;;;;;;;;;;10295817;28;20075;-64
2023/06/01 05:13:25;;;;;;;9.40;8.45;;;;;;;;;;10300052;28;20079;-64
2023/06/01 05:18:23;;;;;;;10.25;8.38;;;;;;;;;;10310495;28;20072;-64
2023/06/01 05:23:21;;;;;;;12.38;7.55;;;;;;;;;;10304663;28;20076;-64
2023/06/01 05:28:20;;;;;;;16.67;8.00;;;;;;;;;;10309939;28;20071;-64
2023/06/01 05:33:20;;;;;;;15.30;8.23;;;;;;;;;;10302975;28;20102;-64
2023/06/01 05:38:18;;;;;;;11.48;7.65;;;;;;;;;;10323417;28;20572;-65
2023/06/01 05:43:17;;;;;;;10.23;8.20;;;;;;;;;;10291105;28;20513;-62
2023/06/01 05:48:16;;;;;;;12.05;7.88;;;;;;;;;;10301038;28;20463;-62
2023/06/01 05:53:24;;;;;;;13.90;8.25;;;;;;;;;;10305179;28;20075;-62
2023/06/01 05:58:25;;;;;;;11.57;8.25;;;;;;;;;;10322667;28;20083;-62
2023/06/01 06:03:24;;;;;;;11.68;8.75;;;;;;;;;;10311450;28;20084;-62
2023/06/01 06:08:23;;;;;;;11.52;9.88;;;;;;;;;;10310663;28;20136;-62
2023/06/01 06:13:21;;;;;;;16.70;8.68;;;;;;;;;;10310850;28;20069;-62
2023/06/01 06:18:20;;;;;;;15.63;9.00;;;;;;;;;;10313634;28;20080;-62
2023/06/01 06:23:18;;;;;;;10.70;7.82;;;;;;;;;;10310729;28;20079;-62
2023/06/01 06:28:18;;;;;;;14.43;8.80;;;;;;;;;;10311468;28;20084;-62
2023/06/01 06:33:16;;;;;;;10.80;7.72;;;;;;;;;;10313113;28;20060;-62
2023/06/01 06:38:16;;;;;;;17.38;8.45;;;;;;;;;;10310070;28;20762;-63
2023/06/01 06:43:15;;;;;;;13.25;9.90;;;;;;;;;;10312278;28;20087;-62
2023/06/01 06:48:14;;;;;;;8.95;7.63;;;;;;;;;;10312980;28;20147;-63
2023/06/01 06:53:13;;;;;;;12.02;7.70;;;;;;;;;;10311813;28;20071;-63
2023/06/01 06:58:12;;;;;;;11.00;8.80;;;;;;;;;;10312117;28;20092;-63
2023/06/01 07:03:10;;;;;;;10.45;8.70;;;;;;;;;;10314392;28;20076;-63
2023/06/01 07:08:10;;;;;;;11.68;7.65;;;;;;;;;;10319844;28;20068;-62
2023/06/01 07:13:08;;;;;;;13.35;8.00;;;;;;;;;;10320098;28;20072;-63
2023/06/01 07:18:06;;;;;;;11.30;9.30;;;;;;;;;;10319876;28;20079;-62
2023/06/01 07:23:05;;;;;;;11.23;7.18;;;;;;;;;;10319343;28;20076;-62
2023/06/01 07:28:07;;;;;;;9.15;8.30;;;;;;;;;;10317166;28;20081;-63
2023/06/01 07:33:05;;;;;;;9.90;7.75;;;;;;;;;;10317825;28;20169;-63
2023/06/01 07:38:03;;;;;;;8.70;7.88;;;;;;;;;;10316827;28;20068;-63
2023/06/01 07:43:02;;;;;;;10.52;8.73;;;;;;;;;;10316126;28;20102;-63
2023/06/01 07:48:01;;;;;;;9.27;7.60;;;;;;;;;;10316757;28;20075;-63
2023/06/01 07:52:59;;;;;;;12.70;7.18;;;;;;;;;;10315972;28;20083;-63
2023/06/01 07:57:58;;;;;;;9.77;8.77;;;;;;;;;;10317786;28;20071;-63
2023/06/01 08:02:57;;;;;;;13.52;7.97;;;;;;;;;;10318003;28;20075;-63
2023/06/01 08:07:57;;;;;;;12.80;6.90;;;;;;;;;;10317360;28;20068;-63
2023/06/01 08:12:56;;;;;;;18.33;9.65;;;;;;;;;;10317093;28;20076;-63
2023/06/01 08:17:54;;;;;;;13.80;8.25;;;;;;;;;;10316929;28;20068;-62
2023/06/01 08:22:52;;;;;;;12.43;7.45;;;;;;;;;;10316671;28;20580;-64
2023/06/01 08:27:52;;;;;;;10.50;6.85;;;;;;;;;;10316579;28;20068;-64
2023/06/01 08:32:50;;;;;;;13.57;8.90;;;;;;;;;;10316528;28;20083;-63
2023/06/01 08:37:49;;;;;;;10.88;6.93;;;;;;;;;;10314933;28;20072;-63
2023/06/01 08:42:50;;;;;;;8.25;7.38;;;;;;;;;;10315331;28;20083;-63
2023/06/01 08:47:53;;;;;;;11.30;8.50;;;;;;;;;;10314449;28;20083;-63
2023/06/01 08:52:54;;;;;;;14.65;7.43;;;;;;;;;;10314351;28;20079;-64
2023/06/01 08:57:54;;;;;;;20.33;8.75;;;;;;;;;;10314299;28;20083;-64
2023/06/01 09:02:53;;;;;;;15.15;8.68;;;;;;;;;;10314147;28;20076;-63
2023/06/01 09:07:51;;;;;;;12.90;7.10;;;;;;;;;;10314505;28;20076;-63
2023/06/01 09:12:53;;;;;;;10.95;7.90;;;;;;;;;;10313737;28;20083;-63
2023/06/01 09:17:53;;;;;;;13.13;8.80;;;;;;;;;;10313519;28;20080;-64
2023/06/01 09:22:51;;;;;;;9.70;7.40;;;;;;;;;;10312282;28;20068;-63
2023/06/01 09:27:50;;;;;;;11.07;8.73;;;;;;;;;;10312509;28;20071;-63
2023/06/01 09:32:50;;;;;;;15.23;7.78;;;;;;;;;;10314114;28;20438;-63
2023/06/01 09:37:57;;;;;;;11.20;9.40;;;;;;;;;;10311629;28;20071;-63
2023/06/01 09:42:55;;;;;;;14.82;8.68;;;;;;;;;;10312883;28;20068;-63
2023/06/01 09:47:53;;;;;;;9.13;7.82;;;;;;;;;;10313131;28;20348;-63
2023/06/01 09:52:59;;;;;;;13.70;7.80;;;;;;;;;;10313926;28;20155;-63
2023/06/01 09:58:16;;;;;;;11.77;8.90;;;;;;;;;;10313619;28;20072;-64
2023/06/01 10:03:15;;;;;;;21.67;13.85;;;;;;;;;;10313626;28;20076;-64
2023/06/01 10:08:17;;;;;;;16.35;10.02;;;;;;;;;;10313601;28;20068;-64
2023/06/01 10:13:15;;;;;;;21.80;13.15;;;;;;;;;;10313753;28;20064;-64
2023/06/01 10:18:15;;;;;;;15.05;9.73;;;;;;;;;;10312741;28;20072;-64
2023/06/01 10:23:15;;;;;;;11.85;8.38;;;;;;;;;;10313778;28;20068;-64
2023/06/01 10:28:29;;;;;;;12.43;7.60;;;;;;;;;;10312127;28;20103;-63
2023/06/01 10:33:42;;;;;;;14.32;9.32;;;;;;;;;;10311570;28;20088;-63
2023/06/01 10:38:41;;;;;;;14.52;8.45;;;;;;;;;;10315748;28;20080;-63
2023/06/01 10:43:40;;;;;;;12.90;7.70;;;;;;;;;;10320225;28;20484;-63
2023/06/01 10:48:54;;;;;;;11.70;7.35;;;;;;;;;;10321064;28;20080;-64
2023/06/01 10:53:54;;;;;;;8.52;7.03;;;;;;;;;;10320667;28;20072;-64
2023/06/01 10:59:11;;;;;;;9.75;7.68;;;;;;;;;;10320398;28;20072;-62
2023/06/01 11:04:16;;;;;;;11.90;6.90;;;;;;;;;;10320007;28;20082;-62
2023/06/01 11:09:17;;;;;;;11.38;5.55;;;;;;;;;;10319870;28;20552;-62
2023/06/01 11:14:15;;;;;;;12.05;5.25;;;;;;;;;;10319806;28;20060;-63
2023/06/01 11:19:18;;;;;;;11.10;6.03;;;;;;;;;;10319120;28;20072;-63
2023/06/01 11:24:18;;;;;;;10.88;5.40;;;;;;;;;;10318729;28;20067;-63
2023/06/01 11:29:17;;;;;;;12.63;5.80;;;;;;;;;;10318838;28;20150;-63
2023/06/01 11:34:18;;;;;;;9.68;6.47;;;;;;;;;;10319402;28;20075;-62
2023/06/01 11:39:22;;;;;;;12.20;7.07;;;;;;;;;;10318134;28;20071;-63
2023/06/01 11:44:20;;;;;;;12.50;7.15;;;;;;;;;;10316413;28;20102;-63
2023/06/01 11:49:18;;;;;;;10.45;6.47;;;;;;;;;;10316173;28;20087;-63
2023/06/01 11:54:17;;;;;;;11.23;5.78;;;;;;;;;;10318136;28;20056;-62
2023/06/01 11:59:16;;;;;;;6.28;5.38;;;;;;;;;;10318663;28;20095;-62
2023/06/01 12:04:15;;;;;;;25.42;10.13;;;;;;;;;;10318242;28;20505;-63
2023/06/01 12:09:15;;;;;;;7.47;5.93;;;;;;;;;;10317662;28;20071;-63
2023/06/01 12:14:13;;;;;;;9.32;4.78;;;;;;;;;;10317903;28;20068;-63
2023/06/01 12:19:14;;;;;;;7.97;4.95;;;;;;;;;;10316941;28;20463;-63
2023/06/01 12:24:14;;;;;;;10.75;5.28;;;;;;;;;;10316835;28;20075;-63
2023/06/01 12:29:12;;;;;;;5.45;4.47;;;;;;;;;;10315857;28;20072;-63
2023/06/01 12:34:21;;;;;;;11.73;5.00;;;;;;;;;;10317056;28;20061;-63
2023/06/01 12:39:35;;;;;;;9.85;4.75;;;;;;;;;;10315747;28;20083;-63
2023/06/01 12:44:33;;;;;;;9.65;5.32;;;;;;;;;;10313524;28;20083;-63
2023/06/01 12:49:33;;;;;;;7.28;5.95;;;;;;;;;;10315113;28;20083;-63
2023/06/01 12:54:31;;;;;;;6.75;4.63;;;;;;;;;;10315867;28;20492;-64
2023/06/01 12:59:29;;;;;;;5.60;5.10;;;;;;;;;;10315434;28;20048;-63
2023/06/01 13:04:28;;;;;;;6.57;4.57;;;;;;;;;;10314981;28;20072;-63
2023/06/01 13:09:28;;;;;;;6.72;4.95;;;;;;;;;;10315278;28;20079;-62
2023/06/01 13:14:26;;;;;;;9.32;4.53;;;;;;;;;;10315575;28;20536;-63
2023/06/01 13:19:25;;;;;;;7.57;4.70;;;;;;;;;;10313973;28;20513;-63
2023/06/01 13:24:23;;;;;;;7.88;5.18;;;;;;;;;;10315566;28;20099;-63
2023/06/01 13:29:23;;;;;;;4.63;4.18;;;;;;;;;;10314786;28;20090;-64
2023/06/01 13:34:22;;;;;;;6.35;4.97;;;;;;;;;;10313781;28;20041;-62
2023/06/01 13:39:20;;;;;;;14.50;4.85;;;;;;;;;;10312591;28;20068;-63
2023/06/01 13:44:19;;;;;;;8.23;5.25;;;;;;;;;;10312182;28;20076;-62
2023/06/01 13:49:19;;;;;;;6.82;5.50;;;;;;;;;;10307924;28;20091;-62
2023/06/01 13:54:17;;;;;;;7.03;5.30;;;;;;;;;;10301810;28;20060;-62
2023/06/01 13:59:18;;;;;;;7.13;4.88;;;;;;;;;;10304634;28;20080;-62
2023/06/01 14:04:16;;;;;;;6.38;4.38;;;;;;;;;;10303241;28;20071;-63
2023/06/01 14:09:19;;;;;;;6.18;4.80;;;;;;;;;;10311823;28;20102;-63
2023/06/01 14:14:17;;;;;;;7.40;4.77;;;;;;;;;;10316400;28;20064;-62
2023/06/01 14:19:16;;;;;;;8.98;4.90;;;;;;;;;;10318791;28;20083;-62
2023/06/01 14:24:15;;;;;;;6.80;4.63;;;;;;;;;;10319930;28;20095;-63
2023/06/01 14:29:13;;;;;;;6.38;5.10;;;;;;;;;;10321649;28;20072;-63
2023/06/01 14:34:12;;;;;;;8.40;4.97;;;;;;;;;;10320730;28;20064;-63
2023/06/01 14:39:10;;;;;;;7.15;5.28;;;;;;;;;;10321033;28;20068;-63
2023/06/01 14:44:10;;;;;;;9.27;5.43;;;;;;;;;;10320302;28;20107;-62
2023/06/01 14:49:08;;;;;;;9.40;4.47;;;;;;;;;;10318657;28;20068;-63
2023/06/01 14:54:06;;;;;;;7.75;4.68;;;;;;;;;;10319247;28;20556;-63
2023/06/01 14:59:04;;;;;;;6.07;4.60;;;;;;;;;;10318709;28;20072;-63
2023/06/01 15:04:04;;;;;;;11.50;7.10;;;;;;;;;;10320110;28;20064;-63
2023/06/01 15:09:02;;;;;;;9.27;5.15;;;;;;;;;;10319916;28;20060;-64
2023/06/01 15:14:00;;;;;;;8.80;5.68;;;;;;;;;;10319551;28;20478;-63
2023/06/01 15:18:59;;;;;;;7.15;5.30;;;;;;;;;;10318675;28;20462;-63
2023/06/01 15:23:58;;;;;;;9.35;5.45;;;;;;;;;;10318459;28;20079;-63
2023/06/01 15:28:56;;;;;;;9.05;4.30;;;;;;;;;;10319140;28;20072;-63
2023/06/01 15:33:55;;;;;;;8.20;5.55;;;;;;;;;;10318332;28;20099;-63
2023/06/01 15:38:53;;;;;;;9.48;6.15;;;;;;;;;;10318977;28;20084;-62
2023/06/01 15:43:52;;;;;;;6.78;5.95;;;;;;;;;;10316284;28;20091;-63
2023/06/01 15:48:50;;;;;;;6.40;5.45;;;;;;;;;;10314705;28;20081;-62
2023/06/01 15:53:50;;;;;;;13.07;6.47;;;;;;;;;;10318292;28;20072;-62
2023/06/01 15:58:49;;;;;;;48.25;11.45;;;;;;;;;;10318063;28;20513;-62
2023/06/01 16:03:49;;;;;;;5.63;3.80;;;;;;;;;;10318012;28;20082;-62
2023/06/01 16:08:48;;;;;;;12.18;7.88;;;;;;;;;;10317135;28;20103;-62
2023/06/01 16:13:46;;;;;;;9.73;6.80;;;;;;;;;;10316988;28;20072;-62
2023/06/01 16:18:45;;;;;;;7.50;6.53;;;;;;;;;;10316455;28;20480;-63
2023/06/01 16:23:46;;;;;;;8.50;6.63;;;;;;;;;;10316443;28;20079;-64
2023/06/01 16:28:49;;;;;;;8.47;7.57;;;;;;;;;;10316068;28;20060;-63
2023/06/01 16:33:47;;;;;;;10.60;6.97;;;;;;;;;;10316750;28;20330;-64
2023/06/01 16:38:48;;;;;;;12.18;8.02;;;;;;;;;;10315600;28;20075;-63
2023/06/01 16:44:23;;;;;;;7.03;5.25;;;;;;;;;;10314441;28;20084;-63
2023/06/01 16:49:21;;;;;;;14.60;5.55;;;;;;;;;;10283119;28;20084;-63
2023/06/01 16:54:21;;;;;;;9.50;5.53;;;;;;;;;;10313831;28;20036;-63
2023/06/01 16:59:19;;;;;;;10.68;4.78;;;;;;;;;;10315729;28;20060;-63
2023/06/01 17:04:17;;;;;;;9.13;5.75;;;;;;;;;;10315506;28;20075;-64
2023/06/01 17:09:16;;;;;;;11.82;6.03;;;;;;;;;;10298607;28;20068;-63
2023/06/01 17:14:15;;;;;;;12.82;7.38;;;;;;;;;;10297357;28;20068;-62
2023/06/01 17:19:14;;;;;;;10.10;9.10;;;;;;;;;;10301695;28;20686;-62
2023/06/01 17:24:12;;;;;;;16.63;13.25;;;;;;;;;;10308718;28;20488;-64
2023/06/01 17:29:11;;;;;;;14.75;9.63;;;;;;;;;;10297202;28;20127;-63
2023/06/01 17:34:13;;;;;;;12.70;10.75;;;;;;;;;;10299410;28;20064;-62
2023/06/01 17:39:13;;;;;;;6.93;5.97;;;;;;;;;;10294192;28;20107;-63
2023/06/01 17:44:12;;;;;;;14.10;4.93;;;;;;;;;;10303868;28;20111;-63
2023/06/01 17:49:16;;;;;;;9.90;5.40;;;;;;;;;;10292243;28;20088;-62
2023/06/01 17:54:14;;;;;;;6.30;5.03;;;;;;;;;;10299483;28;20443;-60
2023/06/01 17:59:15;;;;;;;10.18;5.25;;;;;;;;;;10301174;28;20067;-63
2023/06/01 18:04:13;;;;;;;9.70;5.35;;;;;;;;;;10304060;28;20169;-62
2023/06/01 18:09:15;;;;;;;7.43;5.32;;;;;;;;;;10304867;28;20061;-62
2023/06/01 18:14:13;;;;;;;7.22;5.50;;;;;;;;;;10306023;28;20103;-62
2023/06/01 18:19:14;;;;;;;6.93;5.53;;;;;;;;;;10302477;28;20071;-62
2023/06/01 18:24:14;;;;;;;24.58;19.45;;;;;;;;;;10306382;28;20080;-63
2023/06/01 18:29:20;;;;;;;14.60;12.02;;;;;;;;;;10305532;28;20075;-61
2023/06/01 18:34:18;;;;;;;24.98;19.45;;;;;;;;;;10302342;28;20475;-61
2023/06/01 18:39:19;;;;;;;10.73;8.48;;;;;;;;;;10301252;28;20502;-62
2023/06/01 18:44:17;;;;;;;7.80;7.10;;;;;;;;;;10305371;28;20084;-62
2023/06/01 18:49:17;;;;;;;7.88;6.35;;;;;;;;;;10302727;28;20069;-62
2023/06/01 18:54:15;;;;;;;6.00;4.53;;;;;;;;;;10308306;28;20595;-62
2023/06/01 18:59:15;;;;;;;6.25;4.80;;;;;;;;;;10309743;28;20478;-63
2023/06/01 19:04:13;;;;;;;6.13;4.88;;;;;;;;;;10307673;28;20075;-62
2023/06/01 19:09:18;;;;;;;7.50;5.03;;;;;;;;;;10313010;28;20060;-62
2023/06/01 19:14:18;;;;;;;11.48;5.55;;;;;;;;;;10304296;28;20071;-61
2023/06/01 19:19:23;;;;;;;8.55;4.88;;;;;;;;;;10312417;28;20075;-62
2023/06/01 19:24:25;;;;;;;7.70;4.88;;;;;;;;;;10306813;28;20083;-61
2023/06/01 19:29:25;;;;;;;6.25;5.13;;;;;;;;;;10329584;28;20067;-62
2023/06/01 19:34:26;;;;;;;9.40;5.43;;;;;;;;;;10311464;28;20189;-63
2023/06/01 19:39:29;;;;;;;7.85;4.65;;;;;;;;;;10306918;28;20087;-63
2023/06/01 19:44:29;;;;;;;9.77;5.60;;;;;;;;;;10301549;28;20076;-62
2023/06/01 19:49:33;;;;;;;7.93;4.82;;;;;;;;;;10302175;28;20075;-62
2023/06/01 19:54:32;;;;;;;7.95;4.45;;;;;;;;;;10301037;28;20076;-61
2023/06/01 19:59:33;;;;;;;5.35;4.85;;;;;;;;;;10304128;28;20079;-61
2023/06/01 20:04:36;;;;;;;6.57;4.65;;;;;;;;;;10300277;28;20077;-61
2023/06/01 20:09:37;;;;;;;5.70;5.10;;;;;;;;;;10309991;28;20080;-63
2023/06/01 20:14:37;;;;;;;7.05;5.13;;;;;;;;;;10308666;28;20080;-61
2023/06/01 20:19:35;;;;;;;7.53;4.38;;;;;;;;;;10298123;28;20593;-62
2023/06/01 20:24:33;;;;;;;6.90;4.57;;;;;;;;;;10305364;28;20076;-61
2023/06/01 20:29:36;;;;;;;7.93;4.57;;;;;;;;;;10303455;28;20080;-60
2023/06/01 20:34:35;;;;;;;6.80;4.78;;;;;;;;;;10300809;28;20064;-62
2023/06/01 20:39:36;;;;;;;7.93;5.00;;;;;;;;;;10301317;28;20098;-62
2023/06/01 20:44:35;;;;;;;8.65;5.28;;;;;;;;;;10307962;28;20080;-63
2023/06/01 20:49:38;;;;;;;11.07;5.55;;;;;;;;;;10309767;28;20072;-62
2023/06/01 20:54:37;;;;;;;8.13;4.60;;;;;;;;;;10311367;28;20529;-63
2023/06/01 20:59:37;;;;;;;9.27;4.78;;;;;;;;;;10307196;28;20074;-62
2023/06/01 21:04:38;;;;;;;7.88;4.50;;;;;;;;;;10308792;28;20080;-64
2023/06/01 21:09:36;;;;;;;6.70;4.63;;;;;;;;;;10308367;28;20517;-62
2023/06/01 21:14:34;;;;;;;7.57;4.90;;;;;;;;;;10311054;28;20071;-63
2023/06/01 21:19:33;;;;;;;15.35;5.20;;;;;;;;;;10311570;28;20075;-64
2023/06/01 21:24:33;;;;;;;7.57;5.00;;;;;;;;;;10310552;28;20537;-63
2023/06/01 21:29:31;;;;;;;8.93;5.60;;;;;;;;;;10306937;28;20072;-62
2023/06/01 21:34:29;;;;;;;6.75;5.13;;;;;;;;;;10312007;28;20071;-63
2023/06/01 21:39:28;;;;;;;10.30;4.72;;;;;;;;;;10304386;28;20072;-63
2023/06/01 21:44:27;;;;;;;7.85;4.60;;;;;;;;;;10309437;28;20087;-63
2023/06/01 21:49:26;;;;;;;6.38;4.88;;;;;;;;;;10307229;28;20072;-63
2023/06/01 21:54:24;;;;;;;6.40;4.80;;;;;;;;;;10312111;28;20068;-62
2023/06/01 21:59:22;;;;;;;5.40;4.75;;;;;;;;;;10306488;28;20072;-61
2023/06/01 22:04:23;;;;;;;6.05;4.80;;;;;;;;;;10311541;28;20072;-62
2023/06/01 22:09:21;;;;;;;7.82;4.55;;;;;;;;;;10307823;28;20521;-63
2023/06/01 22:14:19;;;;;;;6.60;4.88;;;;;;;;;;10309481;28;20072;-63
2023/06/01 22:19:18;;;;;;;7.95;4.65;;;;;;;;;;10306503;28;20075;-62
2023/06/01 22:24:17;;;;;;;7.45;5.07;;;;;;;;;;10310105;28;20072;-63
2023/06/01 22:29:16;;;;;;;6.88;5.32;;;;;;;;;;10309167;28;20506;-63
2023/06/01 22:34:14;;;;;;;7.60;5.22;;;;;;;;;;10314731;28;20071;-63
2023/06/01 22:39:12;;;;;;;7.15;4.93;;;;;;;;;;10316867;28;20056;-63
2023/06/01 22:44:12;;;;;;;7.47;5.22;;;;;;;;;;10315815;28;20072;-63
2023/06/01 22:49:13;;;;;;;5.53;4.97;;;;;;;;;;10317616;28;20060;-63
2023/06/01 22:54:11;;;;;;;8.05;5.00;;;;;;;;;;10316784;28;20071;-63
2023/06/01 22:59:10;;;;;;;6.50;5.60;;;;;;;;;;10318782;28;20106;-62
2023/06/01 23:04:10;;;;;;;6.32;4.70;;;;;;;;;;10314475;28;20501;-62
2023/06/01 23:09:09;;;;;;;4.90;4.43;;;;;;;;;;10313058;28;20085;-62
2023/06/01 23:14:12;;;;;;;8.85;5.18;;;;;;;;;;10315495;28;20072;-63
2023/06/01 23:19:31;;;;;;;7.85;5.50;;;;;;;;;;10311471;28;20068;-63
2023/06/01 23:24:31;;;;;;;7.80;4.88;;;;;;;;;;10315058;28;20044;-62
2023/06/01 23:29:30;;;;;;;6.13;5.15;;;;;;;;;;10314622;28;20442;-62
2023/06/01 23:34:32;;;;;;;5.85;4.60;;;;;;;;;;10311116;28;20068;-63
2023/06/01 23:39:31;;;;;;;7.35;4.65;;;;;;;;;;10314230;28;20060;-62
2023/06/01 23:44:29;;;;;;;6.30;5.03;;;;;;;;;;10311753;28;20076;-62
2023/06/01 23:49:27;;;;;;;5.13;4.20;;;;;;;;;;10313365;28;20494;-61
2023/06/01 23:54:27;;;;;;;5.25;4.57;;;;;;;;;;10313284;28;20068;-62
2023/06/01 23:59:25;;;;;;;6.95;5.15;;;;;;;;;;10313609;28;20072;-63
